createdAt,value
2017-12-24T00:01:05.211Z,3.53
2017-12-24T00:03:32.786Z,3.10
2017-12-24T00:06:06.378Z,3.40
2017-12-24T00:08:34.127Z,3.73
2017-12-24T00:11:01.686Z,2.87
2017-12-24T00:13:29.784Z,2.80
2017-12-24T00:15:57.328Z,4.10
2017-12-24T00:18:24.863Z,3.50
2017-12-24T00:20:52.419Z,3.10
2017-12-24T00:23:20.676Z,3.80
2017-12-24T00:25:48.951Z,3.40
2017-12-24T00:28:16.555Z,3.17
2017-12-24T00:30:44.086Z,4.13
2017-12-24T00:33:11.595Z,4.07
2017-12-24T00:35:39.088Z,4.10
2017-12-24T00:38:07.359Z,4.40
2017-12-24T00:40:34.883Z,3.93
2017-12-24T00:43:02.393Z,4.37
2017-12-24T00:45:29.900Z,4.70
2017-12-24T00:47:57.498Z,3.93
2017-12-24T00:50:25.804Z,4.13
2017-12-24T00:52:53.389Z,4.40
2017-12-24T00:55:20.890Z,5.30
2017-12-24T00:57:48.395Z,3.80
2017-12-24T01:00:16.118Z,4.50
2017-12-24T01:02:43.721Z,4.60
2017-12-24T01:05:11.252Z,4.57
2017-12-24T01:07:39.477Z,3.77
2017-12-24T01:10:06.986Z,5.00
2017-12-24T01:12:35.484Z,3.47
2017-12-24T01:15:03.003Z,4.70
2017-12-24T01:17:30.532Z,4.60
2017-12-24T01:19:58.010Z,5.10
2017-12-24T01:22:25.490Z,4.50
2017-12-24T01:24:53.748Z,5.10
2017-12-24T01:27:22.201Z,5.83
2017-12-24T01:29:49.680Z,5.37
2017-12-24T01:32:17.149Z,5.80
2017-12-24T01:34:45.398Z,4.70
2017-12-24T01:37:12.863Z,5.03
2017-12-24T01:39:40.328Z,5.20
2017-12-24T01:42:07.794Z,5.40
2017-12-24T01:44:36.022Z,4.20
2017-12-24T01:47:03.496Z,5.03
2017-12-24T01:49:30.942Z,5.17
2017-12-24T01:51:58.395Z,5.50
2017-12-24T01:54:25.917Z,5.00
2017-12-24T01:56:54.165Z,4.83
2017-12-24T01:59:21.624Z,4.60
2017-12-24T02:01:49.095Z,4.63
2017-12-24T02:04:16.543Z,5.43
2017-12-24T02:06:44.013Z,5.90
2017-12-24T02:09:11.473Z,4.90
2017-12-24T02:11:38.928Z,4.10
2017-12-24T02:14:06.435Z,4.47
2017-12-24T02:16:33.886Z,5.80
2017-12-24T02:19:02.126Z,4.67
2017-12-24T02:21:30.339Z,4.33
2017-12-24T02:23:57.837Z,4.67
2017-12-24T02:26:25.290Z,4.53
2017-12-24T02:28:53.520Z,4.43
2017-12-24T02:31:21.014Z,5.50
2017-12-24T02:33:48.695Z,5.80
2017-12-24T02:36:16.164Z,4.53
2017-12-24T02:38:44.393Z,5.10
2017-12-24T02:41:11.853Z,5.80
2017-12-24T02:43:39.325Z,6.47
2017-12-24T02:46:06.803Z,5.00
2017-12-24T02:48:35.050Z,6.73
2017-12-24T02:51:03.260Z,5.53
2017-12-24T02:53:31.481Z,5.93
2017-12-24T02:55:58.946Z,5.73
2017-12-24T02:58:26.414Z,4.70
2017-12-24T03:00:53.888Z,4.40
2017-12-24T03:03:21.348Z,6.40
2017-12-24T03:05:48.817Z,5.37
2017-12-24T03:08:17.045Z,5.80
2017-12-24T03:10:44.545Z,4.40
2017-12-24T03:13:12.776Z,4.93
2017-12-24T03:15:40.261Z,6.10
2017-12-24T03:18:07.748Z,5.10
2017-12-24T03:20:35.270Z,5.37
2017-12-24T03:23:02.745Z,4.93
2017-12-24T03:25:30.977Z,5.50
2017-12-24T03:27:58.455Z,4.90
2017-12-24T03:30:25.917Z,5.20
2017-12-24T03:32:53.398Z,5.47
2017-12-24T03:35:21.623Z,5.13
2017-12-24T03:37:49.081Z,5.27
2017-12-24T03:40:16.569Z,5.63
2017-12-24T03:42:44.718Z,5.17
2017-12-24T03:45:12.184Z,5.20
2017-12-24T03:47:39.705Z,6.37
2017-12-24T03:50:08.146Z,5.53
2017-12-24T03:52:36.434Z,6.03
2017-12-24T03:55:04.681Z,5.83
2017-12-24T03:57:32.202Z,6.60
2017-12-24T04:00:00.449Z,6.07
2017-12-24T04:02:28.753Z,5.40
2017-12-24T04:04:56.270Z,6.10
2017-12-24T04:07:24.789Z,7.00
2017-12-24T04:09:53.066Z,6.70
2017-12-24T04:12:20.540Z,6.10
2017-12-24T04:14:48.804Z,6.40
2017-12-24T04:17:16.349Z,6.57
2017-12-24T04:19:43.856Z,5.23
2017-12-24T04:22:11.345Z,5.53
2017-12-24T04:24:38.919Z,4.50
2017-12-24T04:27:07.142Z,6.30
2017-12-24T04:29:34.620Z,5.50
2017-12-24T04:32:02.136Z,5.47
2017-12-24T04:34:29.618Z,5.43
2017-12-24T04:36:57.119Z,4.73
2017-12-24T04:41:59.325Z,5.37
2017-12-24T04:44:26.788Z,4.37
2017-12-24T04:46:54.288Z,4.73
2017-12-24T04:49:21.803Z,5.30
2017-12-24T04:51:49.325Z,3.60
2017-12-24T04:54:17.577Z,3.87
2017-12-24T04:56:45.906Z,4.90
2017-12-24T04:59:13.394Z,3.93
2017-12-24T05:01:40.859Z,4.37
2017-12-24T05:04:08.369Z,4.37
2017-12-24T05:06:35.854Z,4.10
2017-12-24T05:09:03.340Z,3.73
2017-12-24T05:11:30.795Z,4.60
2017-12-24T05:13:58.281Z,5.00
2017-12-24T05:16:26.546Z,4.43
2017-12-24T05:18:54.024Z,3.40
2017-12-24T05:21:22.281Z,3.97
2017-12-24T05:23:50.644Z,4.20
2017-12-24T05:26:19.030Z,4.20
2017-12-24T05:28:46.779Z,4.17
2017-12-24T05:31:15.040Z,4.07
2017-12-24T05:33:44.156Z,3.27
2017-12-24T05:36:11.976Z,3.20
2017-12-24T05:38:39.547Z,4.20
2017-12-24T05:41:07.063Z,3.60
2017-12-24T05:43:36.297Z,3.43
2017-12-24T05:46:03.829Z,3.80
2017-12-24T05:48:31.512Z,4.10
2017-12-24T05:50:59.939Z,2.87
2017-12-24T05:53:28.231Z,3.17
2017-12-24T05:55:56.616Z,3.10
2017-12-24T05:58:24.236Z,2.87
2017-12-24T06:00:51.735Z,3.50
2017-12-24T06:03:19.266Z,3.10
2017-12-24T06:05:46.788Z,2.93
2017-12-24T06:08:14.284Z,3.77
2017-12-24T06:10:41.861Z,3.57
2017-12-24T06:13:10.119Z,3.67
2017-12-24T06:15:38.190Z,3.20
2017-12-24T06:18:06.432Z,3.40
2017-12-24T06:20:33.912Z,2.60
2017-12-24T06:23:02.195Z,3.27
2017-12-24T06:25:30.430Z,3.50
2017-12-24T06:27:58.457Z,2.90
2017-12-24T06:30:25.908Z,2.93
2017-12-24T06:32:54.289Z,2.70
2017-12-24T06:35:21.802Z,3.07
2017-12-24T06:37:49.266Z,3.43
2017-12-24T06:40:16.752Z,3.47
2017-12-24T06:42:44.241Z,2.87
2017-12-24T06:45:11.758Z,3.60
2017-12-24T06:47:39.340Z,3.10
2017-12-24T06:50:06.817Z,3.23
2017-12-24T06:52:34.294Z,3.47
2017-12-24T06:55:02.609Z,3.40
2017-12-24T06:57:30.159Z,2.47
2017-12-24T06:59:57.688Z,3.13
2017-12-24T07:02:25.136Z,3.20
2017-12-24T07:04:52.686Z,2.47
2017-12-24T07:07:21.033Z,2.50
2017-12-24T07:09:48.497Z,2.50
2017-12-24T07:12:16.007Z,2.93
2017-12-24T07:14:43.510Z,3.60
2017-12-24T07:17:11.002Z,3.33
2017-12-24T07:19:39.253Z,3.23
2017-12-24T07:22:06.776Z,3.13
2017-12-24T07:24:34.290Z,3.40
2017-12-24T07:27:02.565Z,4.47
2017-12-24T07:29:30.934Z,4.47
2017-12-24T07:31:59.189Z,3.70
2017-12-24T07:34:27.559Z,3.80
2017-12-24T07:36:55.064Z,3.27
2017-12-24T07:39:22.597Z,2.83
2017-12-24T07:41:50.926Z,3.20
2017-12-24T07:44:18.502Z,2.77
2017-12-24T07:46:46.049Z,4.07
2017-12-24T07:49:13.857Z,3.87
2017-12-24T07:51:41.576Z,3.70
2017-12-24T07:54:09.104Z,3.97
2017-12-24T07:56:37.459Z,2.73
2017-12-24T07:59:05.098Z,3.50
2017-12-24T08:01:33.687Z,3.23
2017-12-24T08:04:03.588Z,3.40
2017-12-24T08:06:31.839Z,3.33
2017-12-24T08:08:59.338Z,4.23
2017-12-24T08:11:26.830Z,2.70
2017-12-24T08:13:54.344Z,3.57
2017-12-24T08:16:21.881Z,3.07
2017-12-24T08:18:50.235Z,3.40
2017-12-24T08:21:18.011Z,3.00
2017-12-24T08:23:45.534Z,2.50
2017-12-24T08:26:13.833Z,3.50
2017-12-24T08:28:41.308Z,3.47
2017-12-24T08:31:09.114Z,2.90
2017-12-24T08:33:38.454Z,3.23
2017-12-24T08:36:06.086Z,2.63
2017-12-24T08:38:34.109Z,3.33
2017-12-24T08:41:01.813Z,3.17
2017-12-24T08:43:31.006Z,2.60
2017-12-24T08:46:04.549Z,14.37
2017-12-24T08:48:32.849Z,3.53
2017-12-24T08:51:01.661Z,3.37
2017-12-24T08:53:29.190Z,5.30
2017-12-24T08:55:56.760Z,2.70
2017-12-24T08:58:25.200Z,3.10
2017-12-24T09:00:52.836Z,3.50
2017-12-24T09:03:24.054Z,2.53
2017-12-24T09:05:51.719Z,3.17
2017-12-24T09:08:20.208Z,3.37
2017-12-24T09:10:47.843Z,2.80
2017-12-24T09:13:16.270Z,2.23
2017-12-24T09:15:44.017Z,3.40
2017-12-24T09:18:19.114Z,4.57
2017-12-24T09:20:46.786Z,11.07
2017-12-24T09:23:14.354Z,4.90
2017-12-24T09:25:41.914Z,4.20
2017-12-24T09:28:09.542Z,4.57
2017-12-24T09:30:37.506Z,2.00
2017-12-24T09:33:05.177Z,2.07
2017-12-24T09:35:32.964Z,2.87
2017-12-24T09:38:00.625Z,2.90
2017-12-24T09:40:28.219Z,3.43
2017-12-24T09:42:55.818Z,2.03
2017-12-24T09:45:24.232Z,3.30
2017-12-24T09:47:51.909Z,3.80
2017-12-24T09:50:19.657Z,4.00
2017-12-24T09:52:49.459Z,2.70
2017-12-24T09:55:17.471Z,4.30
2017-12-24T09:57:45.747Z,1.80
2017-12-24T10:00:13.206Z,3.77
2017-12-24T10:02:40.681Z,2.80
2017-12-24T10:05:08.148Z,3.27
2017-12-24T10:07:36.394Z,2.53
2017-12-24T10:10:04.411Z,1.80
2017-12-24T10:12:31.894Z,2.23
2017-12-24T10:15:00.172Z,2.90
2017-12-24T10:17:27.646Z,1.70
2017-12-24T10:19:55.129Z,2.13
2017-12-24T10:22:23.368Z,2.23
2017-12-24T10:24:51.295Z,2.83
2017-12-24T10:27:18.857Z,1.80
2017-12-24T10:29:46.443Z,3.47
2017-12-24T10:32:14.037Z,2.60
2017-12-24T10:34:42.406Z,2.30
2017-12-24T10:37:09.950Z,2.90
2017-12-24T10:39:37.508Z,2.10
2017-12-24T10:42:05.783Z,2.27
2017-12-24T10:44:33.349Z,2.67
2017-12-24T10:47:00.882Z,1.90
2017-12-24T10:49:28.461Z,2.30
2017-12-24T10:51:56.239Z,1.73
2017-12-24T10:54:24.027Z,3.03
2017-12-24T10:56:51.540Z,2.40
2017-12-24T10:59:19.126Z,4.47
2017-12-24T11:01:46.699Z,3.00
2017-12-24T11:04:14.264Z,2.50
2017-12-24T11:06:41.898Z,2.50
2017-12-24T11:09:09.568Z,2.57
2017-12-24T11:11:37.140Z,2.60
2017-12-24T11:14:04.662Z,2.33
2017-12-24T11:16:32.191Z,2.23
2017-12-24T11:18:59.830Z,2.80
2017-12-24T11:21:27.309Z,2.17
2017-12-24T11:23:54.915Z,2.50
2017-12-24T11:26:22.472Z,2.60
2017-12-24T11:28:49.987Z,2.70
2017-12-24T11:31:18.281Z,2.50
2017-12-24T11:33:45.762Z,2.30
2017-12-24T11:36:13.225Z,1.37
2017-12-24T11:38:40.716Z,1.50
2017-12-24T11:41:08.960Z,1.30
2017-12-24T11:43:36.477Z,1.63
2017-12-24T11:46:03.974Z,1.60
2017-12-24T11:48:31.586Z,1.20
2017-12-24T11:50:59.080Z,2.17
2017-12-24T11:53:26.530Z,2.70
2017-12-24T11:55:54.034Z,2.20
2017-12-24T11:58:21.535Z,1.60
2017-12-24T12:00:49.053Z,1.60
2017-12-24T12:03:16.597Z,1.70
2017-12-24T12:05:44.088Z,1.37
2017-12-24T12:08:12.330Z,1.17
2017-12-24T12:10:39.826Z,1.40
2017-12-24T12:13:07.300Z,1.90
2017-12-24T12:15:34.922Z,1.97
2017-12-24T12:18:02.417Z,1.40
2017-12-24T12:20:29.876Z,1.60
2017-12-24T12:22:57.389Z,1.70
2017-12-24T12:25:24.870Z,1.30
2017-12-24T12:27:53.476Z,1.77
2017-12-24T12:30:20.959Z,1.47
2017-12-24T12:32:48.441Z,1.83
2017-12-24T12:35:16.706Z,1.53
2017-12-24T12:37:44.989Z,1.83
2017-12-24T12:40:12.480Z,1.83
2017-12-24T12:42:39.958Z,1.67
2017-12-24T12:45:08.231Z,2.47
2017-12-24T12:47:35.722Z,2.10
2017-12-24T12:50:03.232Z,1.60
2017-12-24T12:52:31.508Z,1.80
2017-12-24T12:54:59.747Z,1.93
2017-12-24T12:57:27.241Z,1.60
2017-12-24T12:59:54.737Z,2.07
2017-12-24T13:02:22.205Z,2.00
2017-12-24T13:04:49.714Z,1.57
2017-12-24T13:07:17.963Z,2.20
2017-12-24T13:09:45.479Z,1.87
2017-12-24T13:12:12.982Z,2.20
2017-12-24T13:14:40.472Z,1.87
2017-12-24T13:17:07.940Z,1.97
2017-12-24T13:19:35.433Z,2.77
2017-12-24T13:22:02.961Z,2.90
2017-12-24T13:24:30.532Z,2.00
2017-12-24T13:26:58.060Z,1.60
2017-12-24T13:29:25.576Z,1.87
2017-12-24T13:31:53.082Z,2.03
2017-12-24T13:34:20.553Z,2.13
2017-12-24T13:36:48.092Z,1.70
2017-12-24T13:39:15.573Z,2.00
2017-12-24T13:41:43.076Z,2.30
2017-12-24T13:44:10.601Z,1.70
2017-12-24T13:46:38.063Z,2.10
2017-12-24T13:49:05.556Z,1.83
2017-12-24T13:51:33.008Z,1.60
2017-12-24T13:54:00.529Z,1.90
2017-12-24T13:56:28.183Z,2.30
2017-12-24T13:58:56.412Z,2.57
2017-12-24T14:01:24.680Z,1.90
2017-12-24T14:03:52.186Z,1.97
2017-12-24T14:06:19.685Z,2.27
2017-12-24T14:08:47.151Z,1.90
2017-12-24T14:11:14.644Z,2.10
2017-12-24T14:13:42.141Z,2.97
2017-12-24T14:16:09.672Z,2.20
2017-12-24T14:18:37.201Z,4.37
2017-12-24T14:21:04.771Z,4.00
2017-12-24T14:23:33.003Z,3.00
2017-12-24T14:26:00.536Z,2.37
2017-12-24T14:28:28.013Z,2.40
2017-12-24T14:30:55.561Z,2.70
2017-12-24T14:33:23.028Z,2.00
2017-12-24T14:35:50.499Z,3.03
2017-12-24T14:38:17.996Z,3.33
2017-12-24T14:40:46.251Z,2.83
2017-12-24T14:43:14.518Z,4.03
2017-12-24T14:45:42.006Z,3.33
2017-12-24T14:48:09.502Z,2.80
2017-12-24T14:50:37.000Z,2.70
2017-12-24T14:53:04.529Z,5.40
2017-12-24T14:55:32.024Z,3.37
2017-12-24T14:58:00.336Z,3.13
2017-12-24T15:00:28.604Z,2.37
2017-12-24T15:02:56.112Z,2.30
2017-12-24T15:05:23.591Z,2.40
2017-12-24T15:07:51.859Z,2.20
2017-12-24T15:10:19.341Z,2.87
2017-12-24T15:12:47.630Z,2.80
2017-12-24T15:15:15.123Z,2.10
2017-12-24T15:17:42.605Z,2.60
2017-12-24T15:20:10.875Z,2.10
2017-12-24T15:22:39.108Z,1.60
2017-12-24T15:25:06.604Z,2.30
2017-12-24T15:27:34.122Z,2.00
2017-12-24T15:30:01.604Z,2.20
2017-12-24T15:32:29.103Z,2.10
2017-12-24T15:34:56.603Z,2.40
2017-12-24T15:37:24.094Z,2.40
2017-12-24T15:39:51.583Z,2.53
2017-12-24T15:42:19.877Z,2.47
2017-12-24T15:44:47.370Z,2.30
2017-12-24T15:47:14.832Z,2.27
2017-12-24T15:49:42.316Z,1.90
2017-12-24T15:52:09.809Z,2.10
2017-12-24T15:54:37.296Z,1.97
2017-12-24T15:57:04.812Z,2.63
2017-12-24T15:59:32.317Z,1.80
2017-12-24T16:01:59.786Z,2.57
2017-12-24T16:04:27.289Z,2.60
2017-12-24T16:06:54.776Z,2.70
2017-12-24T16:09:22.275Z,2.50
2017-12-24T16:11:49.743Z,2.20
2017-12-24T16:14:17.998Z,2.87
2017-12-24T16:16:45.497Z,2.37
2017-12-24T16:19:12.988Z,3.00
2017-12-24T16:21:40.488Z,2.60
2017-12-24T16:24:07.962Z,2.33
2017-12-24T16:26:35.459Z,2.30
2017-12-24T16:29:02.940Z,2.80
2017-12-24T16:31:30.414Z,2.60
2017-12-24T16:33:57.907Z,3.20
2017-12-24T16:36:25.387Z,3.30
2017-12-24T16:38:52.871Z,2.30
2017-12-24T16:41:20.358Z,2.23
2017-12-24T16:43:48.927Z,2.63
2017-12-24T16:46:16.407Z,3.00
2017-12-24T16:48:43.873Z,2.80
2017-12-24T16:51:11.359Z,2.93
2017-12-24T16:53:38.839Z,3.40
2017-12-24T16:56:06.321Z,2.90
2017-12-24T16:58:33.839Z,2.60
2017-12-24T17:01:01.320Z,2.67
2017-12-24T17:03:28.811Z,2.93
2017-12-24T17:05:56.291Z,2.80
2017-12-24T17:08:23.780Z,2.23
2017-12-24T17:10:51.265Z,1.80
2017-12-24T17:13:18.785Z,2.63
2017-12-24T17:15:46.302Z,1.97
2017-12-24T17:18:13.815Z,2.00
2017-12-24T17:20:42.193Z,2.03
2017-12-24T17:23:09.669Z,1.90
2017-12-24T17:25:37.991Z,2.00
2017-12-24T17:28:05.493Z,2.07
2017-12-24T17:30:32.975Z,2.17
2017-12-24T17:33:01.227Z,2.53
2017-12-24T17:37:46.473Z,2.20
2017-12-24T17:40:13.956Z,3.23
2017-12-24T17:42:43.261Z,3.20
2017-12-24T17:45:10.719Z,3.23
2017-12-24T17:47:38.184Z,2.97
2017-12-24T17:50:05.901Z,3.50
2017-12-24T17:52:33.635Z,3.20
2017-12-24T17:55:01.880Z,3.07
2017-12-24T17:57:29.565Z,3.10
2017-12-24T17:59:57.072Z,2.20
2017-12-24T18:02:24.795Z,2.53
2017-12-24T18:04:52.276Z,2.97
2017-12-24T18:07:19.868Z,3.30
2017-12-24T18:09:47.336Z,3.20
2017-12-24T18:12:14.817Z,3.40
2017-12-24T18:14:42.308Z,3.50
2017-12-24T18:17:10.553Z,2.50
2017-12-24T18:19:38.040Z,2.73
2017-12-24T18:22:05.520Z,2.80
2017-12-24T18:24:33.078Z,2.97
2017-12-24T18:27:00.568Z,3.20
2017-12-24T18:29:28.108Z,2.80
2017-12-24T18:31:55.594Z,2.17
2017-12-24T18:34:23.067Z,2.33
2017-12-24T18:36:51.359Z,2.67
2017-12-24T18:39:18.860Z,3.70
2017-12-24T18:41:46.334Z,3.20
2017-12-24T18:44:13.828Z,3.60
2017-12-24T18:46:42.067Z,3.00
2017-12-24T18:49:09.557Z,7.50
2017-12-24T18:51:37.800Z,3.70
2017-12-24T18:54:05.261Z,4.90
2017-12-24T18:56:32.754Z,3.40
2017-12-24T18:59:01.017Z,3.50
2017-12-24T19:01:29.289Z,2.47
2017-12-24T19:03:57.532Z,3.73
2017-12-24T19:06:25.019Z,3.37
2017-12-24T19:08:53.286Z,4.00
2017-12-24T19:11:20.760Z,3.90
2017-12-24T19:13:49.010Z,3.17
2017-12-24T19:16:16.474Z,3.47
2017-12-24T19:18:43.980Z,3.27
2017-12-24T19:21:11.482Z,3.77
2017-12-24T19:23:38.944Z,4.07
2017-12-24T19:26:06.432Z,5.53
2017-12-24T19:28:33.928Z,3.70
2017-12-24T19:31:01.415Z,3.83
2017-12-24T19:33:28.902Z,3.67
2017-12-24T19:35:57.147Z,3.03
2017-12-24T19:38:24.647Z,3.63
2017-12-24T19:40:52.923Z,3.73
2017-12-24T19:43:20.415Z,4.80
2017-12-24T19:45:47.876Z,3.97
2017-12-24T19:48:15.719Z,4.07
2017-12-24T19:50:43.206Z,4.20
2017-12-24T19:53:10.679Z,3.00
2017-12-24T19:55:38.186Z,3.50
2017-12-24T19:58:05.670Z,4.93
2017-12-24T20:00:33.128Z,4.17
2017-12-24T20:03:00.631Z,4.13
2017-12-24T20:05:28.861Z,3.00
2017-12-24T20:07:56.369Z,2.90
2017-12-24T20:10:24.615Z,2.97
2017-12-24T20:12:52.080Z,3.13
2017-12-24T20:15:19.570Z,2.90
2017-12-24T20:17:47.249Z,3.00
2017-12-24T20:20:15.027Z,2.87
2017-12-24T20:22:42.555Z,2.87
2017-12-24T20:25:10.257Z,3.27
2017-12-24T20:27:38.061Z,2.67
2017-12-24T20:30:05.529Z,2.50
2017-12-24T20:32:33.768Z,2.60
2017-12-24T20:35:01.271Z,2.27
2017-12-24T20:37:28.763Z,2.57
2017-12-24T20:39:56.261Z,2.47
2017-12-24T20:42:23.824Z,2.97
2017-12-24T20:44:51.280Z,3.30
2017-12-24T20:47:18.795Z,3.17
2017-12-24T20:49:46.269Z,2.60
2017-12-24T20:52:14.514Z,2.60
2017-12-24T20:54:41.995Z,2.00
2017-12-24T20:57:09.501Z,1.63
2017-12-24T20:59:37.987Z,1.87
2017-12-24T21:02:06.242Z,2.50
2017-12-24T21:04:33.728Z,1.90
2017-12-24T21:07:01.243Z,1.60
2017-12-24T21:09:28.722Z,1.60
2017-12-24T21:11:56.994Z,2.00
2017-12-24T21:14:24.502Z,1.63
2017-12-24T21:16:51.980Z,1.90
2017-12-24T21:19:19.492Z,1.33
2017-12-24T21:21:46.969Z,1.23
2017-12-24T21:24:14.620Z,1.77
2017-12-24T21:26:42.071Z,1.73
2017-12-24T21:29:09.559Z,1.50
2017-12-24T21:31:37.055Z,1.70
2017-12-24T21:34:04.519Z,1.70
2017-12-24T21:36:32.780Z,1.93
2017-12-24T21:39:00.260Z,1.10
2017-12-24T21:41:28.500Z,1.40
2017-12-24T21:43:55.971Z,1.17
2017-12-24T21:46:23.465Z,6.57
2017-12-24T21:48:50.978Z,1.20
2017-12-24T21:51:18.467Z,1.93
2017-12-24T21:53:46.710Z,1.73
2017-12-24T21:56:14.216Z,1.50
2017-12-24T21:58:41.719Z,1.43
2017-12-24T22:01:09.961Z,1.50
2017-12-24T22:03:37.470Z,1.63
2017-12-24T22:06:04.941Z,1.80
2017-12-24T22:08:32.417Z,2.10
2017-12-24T22:11:00.664Z,1.40
2017-12-24T22:13:28.138Z,1.40
2017-12-24T22:15:56.397Z,2.20
2017-12-24T22:18:23.862Z,1.80
2017-12-24T22:20:52.110Z,1.70
2017-12-24T22:23:19.591Z,2.00
2017-12-24T22:25:47.065Z,1.40
2017-12-24T22:28:15.326Z,2.27
2017-12-24T22:30:42.864Z,1.70
2017-12-24T22:33:10.348Z,1.83
2017-12-24T22:35:38.608Z,1.67
2017-12-24T22:38:06.211Z,1.80
2017-12-24T22:40:33.759Z,2.40
2017-12-24T22:43:01.307Z,2.37
2017-12-24T22:45:29.642Z,2.27
2017-12-24T22:47:57.139Z,2.30
2017-12-24T22:50:24.654Z,2.30
2017-12-24T22:52:52.561Z,2.57
2017-12-24T22:55:20.826Z,2.23
2017-12-24T22:57:48.469Z,2.13
2017-12-24T23:00:16.007Z,2.43
2017-12-24T23:02:43.514Z,3.30
2017-12-24T23:05:10.981Z,2.80
2017-12-24T23:07:38.516Z,2.47
2017-12-24T23:10:06.915Z,2.83
2017-12-24T23:12:34.482Z,3.20
2017-12-24T23:15:01.993Z,1.83
2017-12-24T23:17:29.478Z,2.20
2017-12-24T23:19:57.074Z,2.70
2017-12-24T23:22:24.551Z,3.13
2017-12-24T23:24:52.203Z,2.17
2017-12-24T23:27:19.689Z,2.40
2017-12-24T23:29:47.531Z,2.47
2017-12-24T23:32:15.057Z,2.80
2017-12-24T23:34:42.647Z,2.97
2017-12-24T23:37:10.220Z,2.40
2017-12-24T23:39:37.815Z,2.27
2017-12-24T23:42:05.289Z,2.63
2017-12-24T23:44:33.538Z,2.53
2017-12-24T23:47:01.012Z,2.77
2017-12-24T23:49:28.534Z,1.93
2017-12-24T23:51:56.943Z,2.80
2017-12-24T23:54:25.080Z,2.77
2017-12-24T23:56:52.585Z,1.60
2017-12-24T23:59:20.902Z,1.77
